createdAt,value
2023-04-30T00:00:59.021Z,12.11
2023-04-30T00:03:47.590Z,12.14
2023-04-30T00:06:36.090Z,12.24
2023-04-30T00:09:24.703Z,12.22
2023-04-30T00:12:13.185Z,12.11
2023-04-30T00:15:03.030Z,12.02
2023-04-30T00:17:51.667Z,12.09
2023-04-30T00:20:40.218Z,12.11
2023-04-30T00:23:28.789Z,12.11
2023-04-30T00:26:17.266Z,12.11
2023-04-30T00:29:07.065Z,12.08
2023-04-30T00:31:56.929Z,12.07
2023-04-30T00:34:46.003Z,12.09
2023-04-30T00:37:34.549Z,12.06
2023-04-30T00:40:23.075Z,12.04
2023-04-30T00:43:11.573Z,11.94
2023-04-30T00:46:00.196Z,11.97
2023-04-30T00:48:50.267Z,11.73
2023-04-30T00:51:41.603Z,12.03
2023-04-30T00:54:30.146Z,11.99
2023-04-30T00:57:18.826Z,11.87
2023-04-30T01:00:09.570Z,11.86
2023-04-30T01:02:58.362Z,11.41
2023-04-30T01:05:48.240Z,11.76
2023-04-30T01:08:36.872Z,11.76
2023-04-30T01:11:32.950Z,11.46
2023-04-30T01:14:27.576Z,11.68
2023-04-30T01:17:19.735Z,11.81
2023-04-30T01:20:09.554Z,11.76
2023-04-30T01:23:13.429Z,11.81
2023-04-30T01:26:12.701Z,11.83
2023-04-30T01:29:04.257Z,11.80
2023-04-30T01:31:53.028Z,11.84
2023-04-30T01:34:41.719Z,11.79
2023-04-30T01:37:34.792Z,11.83
2023-04-30T01:40:25.878Z,11.86
2023-04-30T01:43:21.938Z,11.65
2023-04-30T01:46:17.938Z,11.73
2023-04-30T01:49:12.876Z,11.84
2023-04-30T01:52:12.515Z,11.83
2023-04-30T01:55:02.493Z,11.81
2023-04-30T01:57:57.763Z,11.79
2023-04-30T02:00:46.390Z,11.80
2023-04-30T02:03:36.285Z,11.78
2023-04-30T02:06:28.263Z,11.79
2023-04-30T02:09:16.929Z,11.78
2023-04-30T02:12:05.749Z,11.79
2023-04-30T02:14:54.249Z,11.77
2023-04-30T02:17:42.823Z,11.79
2023-04-30T02:20:32.747Z,11.79
2023-04-30T02:23:21.335Z,11.75
2023-04-30T02:26:09.865Z,11.71
2023-04-30T02:28:58.320Z,11.87
2023-04-30T02:31:46.862Z,11.94
2023-04-30T02:34:35.478Z,11.93
2023-04-30T02:37:25.501Z,11.90
2023-04-30T02:40:14.157Z,11.94
2023-04-30T02:43:02.621Z,11.92
2023-04-30T02:45:51.208Z,11.95
2023-04-30T02:48:39.802Z,11.91
2023-04-30T02:51:28.294Z,11.89
2023-04-30T02:54:18.091Z,11.90
2023-04-30T02:57:06.879Z,11.87
2023-04-30T02:59:55.612Z,11.90
2023-04-30T03:02:44.523Z,11.91
2023-04-30T03:05:33.049Z,11.90
2023-04-30T03:08:21.550Z,11.77
2023-04-30T03:11:11.334Z,11.92
2023-04-30T03:13:59.808Z,11.95
2023-04-30T03:16:48.457Z,11.86
2023-04-30T03:19:37.180Z,11.94
2023-04-30T03:22:26.725Z,11.91
2023-04-30T03:25:15.443Z,11.94
2023-04-30T03:28:05.675Z,11.97
2023-04-30T03:30:54.173Z,11.92
2023-04-30T03:33:42.681Z,11.86
2023-04-30T03:36:31.291Z,11.85
2023-04-30T03:39:19.775Z,11.88
2023-04-30T03:42:08.282Z,11.90
2023-04-30T03:44:58.222Z,11.91
2023-04-30T03:47:47.001Z,11.90
2023-04-30T03:50:35.672Z,11.94
2023-04-30T03:53:25.788Z,11.96
2023-04-30T03:56:14.435Z,12.04
2023-04-30T03:59:03.057Z,11.91
2023-04-30T04:01:52.976Z,11.80
2023-04-30T04:04:41.457Z,11.91
2023-04-30T04:07:29.914Z,12.00
2023-04-30T04:10:18.368Z,11.92
2023-04-30T04:13:06.845Z,11.58
2023-04-30T04:15:55.327Z,11.77
2023-04-30T04:18:45.431Z,11.89
2023-04-30T04:21:33.874Z,11.89
2023-04-30T04:24:22.333Z,11.88
2023-04-30T04:27:10.804Z,11.84
2023-04-30T04:29:59.254Z,11.94
2023-04-30T04:32:49.391Z,12.01
2023-04-30T04:35:39.304Z,11.98
2023-04-30T04:38:27.766Z,11.98
2023-04-30T04:41:16.575Z,11.90
2023-04-30T04:44:05.699Z,11.93
2023-04-30T04:46:56.642Z,11.93
2023-04-30T04:49:45.237Z,11.94
2023-04-30T04:52:35.057Z,11.91
2023-04-30T04:55:23.525Z,12.00
2023-04-30T04:58:12.014Z,11.89
2023-04-30T05:01:01.323Z,11.90
2023-04-30T05:03:49.969Z,12.00
2023-04-30T05:06:38.614Z,11.94
2023-04-30T05:09:28.514Z,11.97
2023-04-30T05:12:17.003Z,11.87
2023-04-30T05:15:06.593Z,11.94
2023-04-30T05:17:55.170Z,12.15
2023-04-30T05:20:43.756Z,11.86
2023-04-30T05:23:32.280Z,12.19
2023-04-30T05:26:24.426Z,12.06
2023-04-30T05:29:13.343Z,12.08
2023-04-30T05:32:02.992Z,11.77
2023-04-30T05:34:51.610Z,12.08
2023-04-30T05:37:40.141Z,12.26
2023-04-30T05:40:29.139Z,12.26
2023-04-30T05:43:18.934Z,12.19
2023-04-30T05:46:07.474Z,12.15
2023-04-30T05:48:55.957Z,12.28
2023-04-30T05:51:44.445Z,12.38
2023-04-30T05:54:33.266Z,12.14
2023-04-30T05:57:21.824Z,12.55
2023-04-30T06:00:13.525Z,12.59
2023-04-30T06:03:02.006Z,12.78
2023-04-30T06:05:50.636Z,12.70
2023-04-30T06:08:42.421Z,13.03
2023-04-30T06:11:30.947Z,13.07
2023-04-30T06:14:20.111Z,12.93
2023-04-30T06:17:09.957Z,13.06
2023-04-30T06:20:00.754Z,13.12
2023-04-30T06:22:49.295Z,13.29
2023-04-30T06:25:37.844Z,13.38
2023-04-30T06:28:26.508Z,13.23
2023-04-30T06:31:15.176Z,13.18
2023-04-30T06:34:05.027Z,13.15
2023-04-30T06:36:53.543Z,13.37
2023-04-30T06:39:42.036Z,13.42
2023-04-30T06:42:34.283Z,13.41
2023-04-30T06:45:22.852Z,13.73
2023-04-30T06:48:11.327Z,14.10
2023-04-30T06:51:01.157Z,14.08
2023-04-30T06:53:49.569Z,14.05
2023-04-30T06:56:37.991Z,14.05
2023-04-30T06:59:26.434Z,14.27
2023-04-30T07:02:14.993Z,14.51
2023-04-30T07:05:03.940Z,14.83
2023-04-30T07:07:53.782Z,14.65
2023-04-30T07:10:42.291Z,14.94
2023-04-30T07:13:30.713Z,15.02
2023-04-30T07:16:19.219Z,15.10
2023-04-30T07:19:07.733Z,15.06
2023-04-30T07:21:56.188Z,14.93
2023-04-30T07:24:46.012Z,15.07
2023-04-30T07:27:34.530Z,14.63
2023-04-30T07:30:25.035Z,15.16
2023-04-30T07:33:14.221Z,15.16
2023-04-30T07:36:02.713Z,14.64
2023-04-30T07:38:51.438Z,15.11
2023-04-30T07:41:41.346Z,15.46
2023-04-30T07:44:29.932Z,15.76
2023-04-30T07:47:19.935Z,15.79
2023-04-30T07:50:09.149Z,15.97
2023-04-30T07:52:57.634Z,16.44
2023-04-30T07:55:46.430Z,16.28
2023-04-30T07:58:36.303Z,16.24
2023-04-30T08:01:24.840Z,16.21
2023-04-30T08:04:13.354Z,16.43
2023-04-30T08:07:02.720Z,16.54
2023-04-30T08:09:51.693Z,16.75
2023-04-30T08:12:40.769Z,16.62
2023-04-30T08:15:30.824Z,16.08
2023-04-30T08:18:19.258Z,15.98
2023-04-30T08:21:07.927Z,16.03
2023-04-30T08:23:57.178Z,16.20
2023-04-30T08:26:45.653Z,16.21
2023-04-30T08:29:34.223Z,16.03
2023-04-30T08:32:24.184Z,15.70
2023-04-30T08:35:12.791Z,15.62
2023-04-30T08:38:01.228Z,15.54
2023-04-30T08:40:54.045Z,15.60
2023-04-30T08:43:45.163Z,15.55
2023-04-30T08:46:35.651Z,15.65
2023-04-30T08:49:26.254Z,15.66
2023-04-30T08:52:15.785Z,15.38
2023-04-30T08:55:08.755Z,15.43
2023-04-30T08:57:57.207Z,15.55
2023-04-30T09:00:45.852Z,15.70
2023-04-30T09:03:34.457Z,15.80
2023-04-30T09:06:24.391Z,15.72
2023-04-30T09:09:13.932Z,15.03
2023-04-30T09:12:18.381Z,15.90
2023-04-30T09:15:09.075Z,16.11
2023-04-30T09:18:08.505Z,16.33
2023-04-30T09:20:58.709Z,16.46
2023-04-30T09:23:58.453Z,16.38
2023-04-30T09:26:48.244Z,16.35
2023-04-30T09:29:38.280Z,16.27
2023-04-30T09:32:27.246Z,16.46
2023-04-30T09:35:30.777Z,16.13
2023-04-30T09:38:27.556Z,16.46
2023-04-30T09:41:24.922Z,16.53
2023-04-30T09:44:28.332Z,16.59
2023-04-30T09:47:18.179Z,16.47
2023-04-30T09:50:07.766Z,16.54
2023-04-30T09:53:06.664Z,16.16
2023-04-30T09:55:56.784Z,16.49
2023-04-30T09:58:52.110Z,16.53
2023-04-30T10:01:41.148Z,16.69
2023-04-30T10:04:32.002Z,16.72
2023-04-30T10:07:22.697Z,16.90
2023-04-30T10:10:11.992Z,16.73
2023-04-30T10:13:07.150Z,17.04
2023-04-30T10:16:00.389Z,16.89
2023-04-30T10:18:51.758Z,16.92
2023-04-30T10:21:41.558Z,16.77
2023-04-30T10:24:30.134Z,16.81
2023-04-30T10:27:19.251Z,16.69
2023-04-30T10:30:09.947Z,16.63
2023-04-30T10:33:06.549Z,16.49
2023-04-30T10:35:59.495Z,16.58
2023-04-30T10:38:48.611Z,16.45
2023-04-30T10:41:37.107Z,16.64
2023-04-30T10:44:26.916Z,16.47
2023-04-30T10:47:15.462Z,16.54
2023-04-30T10:50:06.418Z,16.71
2023-04-30T10:53:04.133Z,16.71
2023-04-30T10:55:54.854Z,16.51
2023-04-30T10:58:44.060Z,16.57
2023-04-30T11:01:32.725Z,16.63
2023-04-30T11:04:21.342Z,16.78
2023-04-30T11:07:11.678Z,16.72
2023-04-30T11:10:01.954Z,16.87
2023-04-30T11:12:52.038Z,16.98
2023-04-30T11:15:42.219Z,16.86
2023-04-30T11:18:31.124Z,16.97
2023-04-30T11:21:21.707Z,17.19
2023-04-30T11:24:11.511Z,17.28
2023-04-30T11:27:05.407Z,17.48
2023-04-30T11:29:54.964Z,17.43
2023-04-30T11:32:46.310Z,17.33
2023-04-30T11:35:34.989Z,17.51
2023-04-30T11:38:27.664Z,17.59
2023-04-30T11:41:17.453Z,17.75
2023-04-30T11:44:23.473Z,17.76
2023-04-30T11:47:12.218Z,17.82
2023-04-30T11:50:00.702Z,17.61
2023-04-30T11:52:53.693Z,17.52
2023-04-30T11:55:42.698Z,17.77
2023-04-30T11:58:37.968Z,17.79
2023-04-30T12:01:28.481Z,17.81
2023-04-30T12:04:17.112Z,17.80
2023-04-30T12:07:08.959Z,17.87
2023-04-30T12:09:57.736Z,17.90
2023-04-30T12:12:46.567Z,17.86
2023-04-30T12:15:37.133Z,18.05
2023-04-30T12:18:25.829Z,18.15
2023-04-30T12:21:14.693Z,18.16
2023-04-30T12:24:03.674Z,18.04
2023-04-30T12:26:54.685Z,18.10
2023-04-30T12:29:46.434Z,18.09
2023-04-30T12:32:41.193Z,18.28
2023-04-30T12:35:32.491Z,18.18
2023-04-30T12:38:23.326Z,17.94
2023-04-30T12:41:15.156Z,18.00
2023-04-30T12:44:17.672Z,17.73
2023-04-30T12:47:10.179Z,18.00
2023-04-30T12:50:00.068Z,17.97
2023-04-30T12:52:48.709Z,17.91
2023-04-30T12:55:37.846Z,17.93
2023-04-30T12:58:31.726Z,17.92
2023-04-30T13:01:21.553Z,17.85
2023-04-30T13:04:10.141Z,17.99
2023-04-30T13:07:00.232Z,17.73
2023-04-30T13:09:48.693Z,17.84
2023-04-30T13:12:37.196Z,17.59
2023-04-30T13:15:25.686Z,17.78
2023-04-30T13:18:15.818Z,17.71
2023-04-30T13:21:04.553Z,17.66
2023-04-30T13:23:55.750Z,18.09
2023-04-30T13:26:45.997Z,18.15
2023-04-30T13:29:34.486Z,18.22
2023-04-30T13:32:23.024Z,18.24
2023-04-30T13:35:11.749Z,18.24
2023-04-30T13:38:00.541Z,18.05
2023-04-30T13:40:50.471Z,17.96
2023-04-30T13:43:42.483Z,18.17
2023-04-30T13:46:31.400Z,18.15
2023-04-30T13:49:19.956Z,18.30
2023-04-30T13:52:08.470Z,18.38
2023-04-30T13:54:57.313Z,18.37
2023-04-30T13:57:47.208Z,18.44
2023-04-30T14:00:35.834Z,18.40
2023-04-30T14:03:24.626Z,18.05
2023-04-30T14:06:13.301Z,18.17
2023-04-30T14:09:02.050Z,17.99
2023-04-30T14:11:51.185Z,18.13
2023-04-30T14:14:41.143Z,18.10
2023-04-30T14:17:30.292Z,18.33
2023-04-30T14:20:18.806Z,18.50
2023-04-30T14:23:07.228Z,18.42
2023-04-30T14:25:56.475Z,18.28
2023-04-30T14:28:44.970Z,18.23
2023-04-30T14:31:34.835Z,18.30
2023-04-30T14:34:24.441Z,18.44
2023-04-30T14:37:14.010Z,18.52
2023-04-30T14:40:03.088Z,18.57
2023-04-30T14:42:51.737Z,18.40
2023-04-30T14:45:40.867Z,18.45
2023-04-30T14:48:30.854Z,18.36
2023-04-30T14:51:19.282Z,17.86
2023-04-30T14:54:07.784Z,18.55
2023-04-30T14:56:56.416Z,18.51
2023-04-30T14:59:45.014Z,18.62
2023-04-30T15:02:33.594Z,18.63
2023-04-30T15:05:23.570Z,18.73
2023-04-30T15:08:11.990Z,18.76
2023-04-30T15:11:00.737Z,18.58
2023-04-30T15:13:49.195Z,18.64
2023-04-30T15:16:37.703Z,18.40
2023-04-30T15:19:26.284Z,18.44
2023-04-30T15:22:16.277Z,18.46
2023-04-30T15:25:05.289Z,18.41
2023-04-30T15:27:53.827Z,18.48
2023-04-30T15:30:42.583Z,18.48
2023-04-30T15:33:31.425Z,18.26
2023-04-30T15:36:22.304Z,18.46
2023-04-30T15:39:12.180Z,18.46
2023-04-30T15:42:00.625Z,18.40
2023-04-30T15:44:49.080Z,18.32
2023-04-30T15:47:37.756Z,18.33
2023-04-30T15:50:26.257Z,18.22
2023-04-30T15:53:15.111Z,18.54
2023-04-30T15:56:05.522Z,18.57
2023-04-30T15:58:54.688Z,18.58
2023-04-30T16:01:43.677Z,18.48
2023-04-30T16:04:32.333Z,18.49
2023-04-30T16:07:20.934Z,18.57
2023-04-30T16:10:10.956Z,18.31
2023-04-30T16:13:00.825Z,18.36
2023-04-30T16:15:50.092Z,18.45
2023-04-30T16:18:38.584Z,18.44
2023-04-30T16:21:27.275Z,18.46
2023-04-30T16:24:16.228Z,18.44
2023-04-30T16:27:05.047Z,18.36
2023-04-30T16:29:55.427Z,18.18
2023-04-30T16:32:44.533Z,18.46
2023-04-30T16:35:33.458Z,18.50
2023-04-30T16:38:22.371Z,18.47
2023-04-30T16:41:12.129Z,18.45
2023-04-30T16:44:00.720Z,18.31
2023-04-30T16:46:50.666Z,18.29
2023-04-30T16:49:39.728Z,18.23
2023-04-30T16:52:29.627Z,18.29
2023-04-30T16:55:18.371Z,18.31
2023-04-30T16:58:07.105Z,18.25
2023-04-30T17:00:56.803Z,18.06
2023-04-30T17:03:47.370Z,18.21
2023-04-30T17:06:36.769Z,18.09
2023-04-30T17:09:25.424Z,18.27
2023-04-30T17:12:13.947Z,18.33
2023-04-30T17:15:02.470Z,18.21
2023-04-30T17:17:50.983Z,18.12
2023-04-30T17:20:40.910Z,18.19
2023-04-30T17:23:29.504Z,18.26
2023-04-30T17:26:21.447Z,18.24
2023-04-30T17:29:09.944Z,18.16
2023-04-30T17:31:58.474Z,18.08
2023-04-30T17:34:47.156Z,18.14
2023-04-30T17:37:36.964Z,18.00
2023-04-30T17:40:25.473Z,18.00
2023-04-30T17:43:14.033Z,17.84
2023-04-30T17:46:03.421Z,17.72
2023-04-30T17:48:51.965Z,17.75
2023-04-30T17:51:40.452Z,17.66
2023-04-30T17:54:31.408Z,17.55
2023-04-30T17:57:19.940Z,17.47
2023-04-30T18:00:09.659Z,17.40
2023-04-30T18:02:58.187Z,17.29
2023-04-30T18:05:46.787Z,17.27
2023-04-30T18:08:35.348Z,17.19
2023-04-30T18:11:25.266Z,17.13
2023-04-30T18:14:14.121Z,17.02
2023-04-30T18:17:02.965Z,16.61
2023-04-30T18:19:51.414Z,16.80
2023-04-30T18:22:43.334Z,16.69
2023-04-30T18:25:34.139Z,16.61
2023-04-30T18:28:24.674Z,16.28
2023-04-30T18:31:13.276Z,16.37
2023-04-30T18:34:01.859Z,16.20
2023-04-30T18:36:50.408Z,16.08
2023-04-30T18:39:38.896Z,15.95
2023-04-30T18:42:27.397Z,15.85
2023-04-30T18:45:17.903Z,15.76
2023-04-30T18:48:07.823Z,15.67
2023-04-30T18:50:56.368Z,15.55
2023-04-30T18:53:47.104Z,15.48
2023-04-30T18:56:36.840Z,15.33
2023-04-30T18:59:27.397Z,15.16
2023-04-30T19:02:17.558Z,15.00
2023-04-30T19:05:07.397Z,14.95
2023-04-30T19:07:55.855Z,14.85
2023-04-30T19:10:44.482Z,14.78
2023-04-30T19:13:33.400Z,14.70
2023-04-30T19:16:21.955Z,14.60
2023-04-30T19:19:11.987Z,14.50
2023-04-30T19:22:01.168Z,14.43
2023-04-30T19:24:49.627Z,14.36
2023-04-30T19:27:38.224Z,14.26
2023-04-30T19:30:26.771Z,14.24
2023-04-30T19:33:15.434Z,14.15
2023-04-30T19:36:05.994Z,14.03
2023-04-30T19:38:54.612Z,13.94
2023-04-30T19:41:43.087Z,13.86
2023-04-30T19:44:31.547Z,13.77
2023-04-30T19:47:20.107Z,13.72
2023-04-30T19:50:10.020Z,13.62
2023-04-30T19:52:59.822Z,13.55
2023-04-30T19:55:48.487Z,13.48
2023-04-30T19:58:37.101Z,13.46
2023-04-30T20:01:25.609Z,13.40
2023-04-30T20:04:14.229Z,13.33
2023-04-30T20:07:02.954Z,13.22
2023-04-30T20:09:53.118Z,13.13
2023-04-30T20:12:41.860Z,13.10
2023-04-30T20:15:30.691Z,13.07
2023-04-30T20:18:19.217Z,12.98
2023-04-30T20:21:09.951Z,12.87
2023-04-30T20:24:00.230Z,12.78
2023-04-30T20:26:51.338Z,12.75
2023-04-30T20:29:41.547Z,12.68
2023-04-30T20:32:30.031Z,12.63
2023-04-30T20:35:19.188Z,12.59
2023-04-30T20:38:07.768Z,12.51
2023-04-30T20:40:56.384Z,12.43
2023-04-30T20:43:46.290Z,12.34
2023-04-30T20:46:36.161Z,12.28
2023-04-30T20:49:26.925Z,12.25
2023-04-30T20:52:15.779Z,12.01
2023-04-30T20:55:04.624Z,12.27
2023-04-30T20:57:53.317Z,12.25
2023-04-30T21:00:43.316Z,12.30
2023-04-30T21:03:32.083Z,12.30
2023-04-30T21:06:20.699Z,12.30
2023-04-30T21:09:10.631Z,12.22
2023-04-30T21:11:59.539Z,12.19
2023-04-30T21:14:48.080Z,12.07
2023-04-30T21:17:38.004Z,12.03
2023-04-30T21:20:26.637Z,11.98
2023-04-30T21:23:15.597Z,12.02
2023-04-30T21:26:04.130Z,11.98
2023-04-30T21:28:52.758Z,11.89
2023-04-30T21:31:41.401Z,11.60
2023-04-30T21:34:32.772Z,11.70
2023-04-30T21:37:21.522Z,11.79
2023-04-30T21:40:11.013Z,11.70
2023-04-30T21:42:59.566Z,11.62
2023-04-30T21:45:48.190Z,11.51
2023-04-30T21:48:38.372Z,11.07
2023-04-30T21:51:28.218Z,11.54
2023-04-30T21:54:19.064Z,11.58
2023-04-30T21:57:07.525Z,11.55
2023-04-30T21:59:56.253Z,11.48
2023-04-30T22:02:45.076Z,11.19
2023-04-30T22:05:33.614Z,11.28
2023-04-30T22:08:23.568Z,11.33
2023-04-30T22:11:12.386Z,11.25
2023-04-30T22:14:01.143Z,11.22
2023-04-30T22:16:49.757Z,11.20
2023-04-30T22:19:38.445Z,11.16
2023-04-30T22:22:27.065Z,10.99
2023-04-30T22:25:17.661Z,11.08
2023-04-30T22:28:06.240Z,11.09
2023-04-30T22:30:59.608Z,11.07
2023-04-30T22:33:48.079Z,11.11
2023-04-30T22:36:36.944Z,10.93
2023-04-30T22:39:25.432Z,11.02
2023-04-30T22:42:15.518Z,11.01
2023-04-30T22:45:04.336Z,10.79
2023-04-30T22:47:53.498Z,10.89
2023-04-30T22:50:42.031Z,10.88
2023-04-30T22:53:30.555Z,10.72
2023-04-30T22:56:19.063Z,10.79
2023-04-30T22:59:08.928Z,10.57
2023-04-30T23:01:57.596Z,10.07
2023-04-30T23:04:46.093Z,10.43
2023-04-30T23:07:34.675Z,10.54
2023-04-30T23:10:23.129Z,10.39
2023-04-30T23:13:11.813Z,10.54
2023-04-30T23:16:05.347Z,10.40
2023-04-30T23:18:54.015Z,10.56
2023-04-30T23:21:42.508Z,10.61
2023-04-30T23:24:35.111Z,10.60
2023-04-30T23:27:23.697Z,10.54
2023-04-30T23:30:12.631Z,10.56
2023-04-30T23:33:02.613Z,10.49
2023-04-30T23:35:52.698Z,10.54
2023-04-30T23:38:42.798Z,10.57
2023-04-30T23:41:31.522Z,10.53
2023-04-30T23:44:20.482Z,10.49
2023-04-30T23:47:09.301Z,10.51
2023-04-30T23:49:59.097Z,10.51
2023-04-30T23:52:47.720Z,10.32
2023-04-30T23:55:36.308Z,10.47
2023-04-30T23:58:24.903Z,10.30
